createdAt,value
2019-03-21T00:01:35.189Z,12.33
2019-03-21T00:04:41.170Z,13.23
2019-03-21T00:07:46.919Z,9.50
2019-03-21T00:11:27.505Z,7.93
2019-03-21T00:15:14.689Z,8.07
2019-03-21T00:18:20.168Z,6.90
2019-03-21T00:21:25.712Z,10.30
2019-03-21T00:24:31.294Z,9.27
2019-03-21T00:27:36.992Z,7.70
2019-03-21T00:30:42.593Z,7.40
2019-03-21T00:34:02.494Z,7.47
2019-03-21T00:37:08.629Z,6.23
2019-03-21T00:40:16.688Z,7.83
2019-03-21T00:43:22.413Z,7.30
2019-03-21T00:46:27.907Z,11.80
2019-03-21T00:49:33.356Z,8.43
2019-03-21T00:52:40.948Z,7.87
2019-03-21T00:55:47.714Z,8.63
2019-03-21T00:58:53.180Z,7.47
2019-03-21T01:01:58.632Z,6.90
2019-03-21T01:05:04.766Z,8.33
2019-03-21T01:08:10.318Z,10.50
2019-03-21T01:11:16.017Z,10.83
2019-03-21T01:14:29.456Z,6.77
2019-03-21T01:17:28.977Z,10.77
2019-03-21T01:20:34.389Z,8.07
2019-03-21T01:23:39.899Z,11.93
2019-03-21T01:26:45.536Z,7.33
2019-03-21T01:29:51.174Z,8.23
2019-03-21T01:33:03.502Z,7.43
2019-03-21T01:36:09.796Z,9.43
2019-03-21T01:39:16.184Z,6.33
2019-03-21T01:42:21.899Z,7.00
2019-03-21T01:45:27.350Z,8.27
2019-03-21T01:48:32.933Z,7.83
2019-03-21T01:51:38.634Z,8.00
2019-03-21T01:54:44.141Z,6.20
2019-03-21T01:57:51.110Z,7.80
2019-03-21T02:00:56.556Z,6.77
2019-03-21T02:04:02.310Z,6.80
2019-03-21T02:07:07.812Z,6.07
2019-03-21T02:10:14.821Z,6.83
2019-03-21T02:13:20.401Z,9.20
2019-03-21T02:16:25.918Z,6.70
2019-03-21T02:19:31.284Z,14.20
2019-03-21T02:22:36.884Z,7.80
2019-03-21T02:25:42.588Z,9.87
2019-03-21T02:28:48.123Z,10.60
2019-03-21T02:31:53.514Z,7.40
2019-03-21T02:34:59.029Z,8.33
2019-03-21T02:38:04.467Z,7.10
2019-03-21T02:41:10.461Z,11.03
2019-03-21T02:44:16.407Z,8.30
2019-03-21T02:47:22.021Z,6.60
2019-03-21T02:50:30.276Z,6.57
2019-03-21T02:53:36.008Z,10.13
2019-03-21T02:56:41.725Z,5.77
2019-03-21T02:59:47.330Z,7.67
2019-03-21T03:02:54.659Z,5.80
2019-03-21T03:06:00.284Z,6.70
2019-03-21T03:09:08.117Z,7.30
2019-03-21T03:12:13.531Z,9.67
2019-03-21T03:15:22.925Z,5.70
2019-03-21T03:18:27.289Z,6.00
2019-03-21T03:21:32.972Z,5.73
2019-03-21T03:24:38.972Z,5.87
2019-03-21T03:27:44.564Z,5.73
2019-03-21T03:30:50.079Z,10.70
2019-03-21T03:33:55.686Z,6.10
2019-03-21T03:37:01.213Z,9.23
2019-03-21T03:40:08.815Z,5.47
2019-03-21T03:43:14.265Z,7.77
2019-03-21T03:46:19.710Z,6.53
2019-03-21T03:49:25.280Z,8.43
2019-03-21T03:52:30.808Z,6.13
2019-03-21T03:55:37.010Z,6.20
2019-03-21T03:58:43.640Z,8.20
2019-03-21T04:01:49.269Z,5.77
2019-03-21T04:04:54.737Z,12.03
2019-03-21T04:08:00.270Z,9.30
2019-03-21T04:11:05.930Z,6.47
2019-03-21T04:14:11.530Z,9.10
2019-03-21T04:17:17.052Z,13.10
2019-03-21T04:20:24.362Z,6.53
2019-03-21T04:23:29.778Z,8.70
2019-03-21T04:26:35.386Z,9.70
2019-03-21T04:29:41.098Z,6.30
2019-03-21T04:32:46.687Z,6.80
2019-03-21T04:35:52.273Z,8.40
2019-03-21T04:38:57.811Z,6.57
2019-03-21T04:42:03.516Z,7.47
2019-03-21T04:45:11.801Z,7.33
2019-03-21T04:48:17.504Z,8.57
2019-03-21T04:51:23.034Z,6.83
2019-03-21T04:54:28.424Z,9.27
2019-03-21T04:57:34.130Z,7.93
2019-03-21T05:00:39.788Z,8.73
2019-03-21T05:03:45.218Z,11.00
2019-03-21T05:06:50.627Z,7.40
2019-03-21T05:09:56.130Z,9.50
2019-03-21T05:13:01.515Z,7.87
2019-03-21T05:16:14.614Z,7.07
2019-03-21T05:19:14.836Z,10.77
2019-03-21T05:22:20.615Z,9.00
2019-03-21T05:25:26.229Z,6.83
2019-03-21T05:28:31.702Z,5.80
2019-03-21T05:31:37.457Z,8.00
2019-03-21T05:34:43.233Z,7.70
2019-03-21T05:37:48.972Z,10.93
2019-03-21T05:40:54.552Z,10.60
2019-03-21T05:44:03.534Z,8.83
2019-03-21T05:47:09.256Z,7.67
2019-03-21T05:50:15.619Z,10.90
2019-03-21T05:53:21.063Z,7.80
2019-03-21T05:56:26.971Z,10.83
2019-03-21T05:59:32.594Z,12.30
2019-03-21T06:02:38.095Z,7.93
2019-03-21T06:05:45.150Z,7.60
2019-03-21T06:08:50.824Z,9.00
2019-03-21T06:11:58.129Z,7.77
2019-03-21T06:15:03.074Z,11.70
2019-03-21T06:18:58.291Z,9.30
2019-03-21T06:22:25.643Z,9.50
2019-03-21T06:26:04.244Z,8.70
2019-03-21T06:29:09.816Z,8.13
2019-03-21T06:32:15.570Z,9.80
2019-03-21T06:35:22.654Z,10.17
2019-03-21T06:38:28.328Z,11.47
2019-03-21T06:41:33.894Z,8.53
2019-03-21T06:44:39.447Z,9.17
2019-03-21T06:47:45.161Z,7.60
2019-03-21T06:50:50.731Z,10.83
2019-03-21T06:53:56.348Z,8.17
2019-03-21T06:57:02.648Z,10.37
2019-03-21T07:00:08.634Z,7.60
2019-03-21T07:03:16.324Z,7.93
2019-03-21T07:06:21.582Z,12.27
2019-03-21T07:09:29.088Z,12.47
2019-03-21T07:12:34.107Z,9.77
2019-03-21T07:15:39.846Z,5.43
2019-03-21T07:18:45.516Z,6.10
2019-03-21T07:21:51.039Z,12.07
2019-03-21T07:24:56.627Z,8.87
2019-03-21T07:28:04.912Z,8.80
2019-03-21T07:31:11.489Z,10.63
2019-03-21T07:34:17.260Z,6.57
2019-03-21T07:37:24.492Z,7.87
2019-03-21T07:40:30.089Z,6.97
2019-03-21T07:43:36.051Z,6.93
2019-03-21T07:46:41.613Z,6.90
2019-03-21T07:49:47.086Z,7.63
2019-03-21T07:52:52.647Z,13.17
2019-03-21T07:55:58.289Z,10.27
2019-03-21T07:59:03.918Z,8.30
2019-03-21T08:02:09.599Z,8.40
2019-03-21T08:05:15.784Z,6.13
2019-03-21T08:08:21.409Z,8.77
2019-03-21T08:11:27.199Z,10.37
2019-03-21T08:14:32.989Z,7.00
2019-03-21T08:17:38.472Z,6.27
2019-03-21T08:20:55.697Z,7.77
2019-03-21T08:23:51.785Z,4.70
2019-03-21T08:26:57.608Z,7.00
2019-03-21T08:30:03.325Z,6.10
2019-03-21T08:33:08.906Z,8.00
2019-03-21T08:36:14.622Z,6.37
2019-03-21T08:39:20.485Z,5.47
2019-03-21T08:42:25.953Z,7.50
2019-03-21T08:45:31.708Z,5.80
2019-03-21T08:48:37.215Z,5.70
2019-03-21T08:51:42.801Z,6.40
2019-03-21T08:54:48.314Z,4.95
2019-03-21T08:57:53.955Z,7.37
2019-03-21T09:00:59.448Z,5.40
2019-03-21T09:04:05.430Z,7.15
2019-03-21T09:07:10.986Z,5.10
2019-03-21T09:10:16.700Z,8.15
2019-03-21T09:13:22.296Z,7.60
2019-03-21T09:16:27.824Z,5.42
2019-03-21T09:19:33.396Z,4.90
2019-03-21T09:22:39.187Z,8.83
2019-03-21T09:25:44.898Z,6.45
2019-03-21T09:28:50.638Z,6.30
2019-03-21T09:31:56.410Z,6.90
2019-03-21T09:35:01.956Z,4.90
2019-03-21T09:38:07.703Z,7.07
2019-03-21T09:41:13.263Z,7.15
2019-03-21T09:44:24.382Z,6.25
2019-03-21T09:47:29.917Z,7.55
2019-03-21T09:50:35.457Z,8.85
2019-03-21T09:53:40.993Z,8.15
2019-03-21T09:56:47.844Z,6.85
2019-03-21T09:59:53.216Z,6.62
2019-03-21T10:02:58.621Z,7.85
2019-03-21T10:06:04.141Z,6.75
2019-03-21T10:09:09.897Z,6.60
2019-03-21T10:12:15.620Z,7.80
2019-03-21T10:15:21.177Z,7.62
2019-03-21T10:18:26.493Z,7.08
2019-03-21T10:21:42.828Z,7.15
2019-03-21T10:24:39.358Z,6.45
2019-03-21T10:27:45.152Z,5.75
2019-03-21T10:30:50.895Z,7.40
2019-03-21T10:33:56.477Z,7.60
2019-03-21T10:37:02.411Z,9.10
2019-03-21T10:40:08.126Z,6.85
2019-03-21T10:43:14.001Z,5.70
2019-03-21T10:46:19.506Z,6.50
2019-03-21T10:49:25.020Z,4.67
2019-03-21T10:52:30.591Z,6.10
2019-03-21T10:55:36.514Z,5.97
2019-03-21T10:58:42.084Z,6.15
2019-03-21T11:01:47.713Z,6.42
2019-03-21T11:04:53.868Z,6.20
2019-03-21T11:07:59.662Z,7.17
2019-03-21T11:11:05.509Z,6.77
2019-03-21T11:14:11.085Z,5.92
2019-03-21T11:17:22.574Z,6.40
2019-03-21T11:20:35.882Z,7.40
2019-03-21T11:23:41.454Z,6.73
2019-03-21T11:26:46.986Z,6.70
2019-03-21T11:29:59.155Z,6.23
2019-03-21T11:33:04.876Z,7.90
2019-03-21T11:36:10.624Z,8.57
2019-03-21T11:39:15.997Z,7.40
2019-03-21T11:42:21.780Z,9.23
2019-03-21T11:45:27.378Z,7.80
2019-03-21T11:48:32.850Z,7.90
2019-03-21T11:51:38.801Z,8.70
2019-03-21T11:54:44.562Z,7.30
2019-03-21T11:57:50.147Z,7.97
2019-03-21T12:00:55.558Z,7.37
2019-03-21T12:04:00.981Z,7.20
2019-03-21T12:07:06.553Z,7.20
2019-03-21T12:10:12.166Z,7.00
2019-03-21T12:13:17.622Z,9.80
2019-03-21T12:16:23.174Z,7.40
2019-03-21T12:19:30.786Z,6.53
2019-03-21T12:22:36.717Z,7.37
2019-03-21T12:25:45.134Z,8.13
2019-03-21T12:28:52.267Z,11.83
2019-03-21T12:31:57.688Z,7.50
2019-03-21T12:35:03.220Z,7.97
2019-03-21T12:38:09.098Z,6.90
2019-03-21T12:41:14.942Z,7.07
2019-03-21T12:44:20.359Z,7.13
2019-03-21T12:47:31.554Z,7.87
2019-03-21T12:50:34.145Z,8.60
2019-03-21T12:53:39.629Z,10.37
2019-03-21T12:56:45.229Z,9.43
2019-03-21T12:59:51.128Z,8.70
2019-03-21T13:03:15.358Z,11.37
2019-03-21T13:06:21.207Z,11.30
2019-03-21T13:09:26.760Z,8.80
2019-03-21T13:12:37.971Z,10.43
2019-03-21T13:15:43.692Z,9.63
2019-03-21T13:18:49.535Z,6.93
2019-03-21T13:21:55.165Z,8.77
2019-03-21T13:25:01.341Z,9.00
2019-03-21T13:28:07.590Z,7.80
2019-03-21T13:31:13.065Z,9.80
2019-03-21T13:34:18.633Z,7.97
2019-03-21T13:37:24.396Z,8.03
2019-03-21T13:40:29.988Z,9.87
2019-03-21T13:43:35.482Z,8.37
2019-03-21T13:46:41.556Z,8.73
2019-03-21T13:49:47.037Z,13.57
2019-03-21T13:53:03.945Z,7.77
2019-03-21T13:56:00.884Z,13.83
2019-03-21T13:59:06.738Z,8.30
2019-03-21T14:02:12.574Z,10.30
2019-03-21T14:05:18.165Z,10.20
2019-03-21T14:08:23.619Z,12.07
2019-03-21T14:11:29.251Z,9.97
2019-03-21T14:14:35.313Z,7.77
2019-03-21T14:17:41.057Z,8.53
2019-03-21T14:20:47.031Z,7.63
2019-03-21T14:23:52.542Z,9.60
2019-03-21T14:26:58.002Z,8.80
2019-03-21T14:30:03.687Z,10.77
2019-03-21T14:33:14.915Z,12.10
2019-03-21T14:36:20.505Z,11.67
2019-03-21T14:39:25.880Z,15.03
2019-03-21T14:42:31.889Z,10.80
2019-03-21T14:45:37.350Z,13.10
2019-03-21T14:48:42.931Z,8.20
2019-03-21T14:51:48.647Z,9.70
2019-03-21T14:54:54.303Z,8.00
2019-03-21T14:57:59.811Z,9.07
2019-03-21T15:01:05.134Z,8.90
2019-03-21T15:04:10.693Z,7.87
2019-03-21T15:07:18.654Z,8.83
2019-03-21T15:10:23.920Z,10.63
2019-03-21T15:13:29.495Z,8.17
2019-03-21T15:16:35.009Z,9.53
2019-03-21T15:19:40.510Z,9.40
2019-03-21T15:22:46.011Z,9.63
2019-03-21T15:25:51.632Z,10.97
2019-03-21T15:28:57.535Z,7.60
2019-03-21T15:32:03.290Z,9.30
2019-03-21T15:35:10.170Z,7.53
2019-03-21T15:38:16.774Z,9.57
2019-03-21T15:41:22.391Z,6.37
2019-03-21T15:44:28.174Z,8.00
2019-03-21T15:47:34.083Z,7.47
2019-03-21T15:50:39.629Z,8.70
2019-03-21T15:53:53.488Z,8.93
2019-03-21T15:56:52.516Z,8.63
2019-03-21T15:59:58.389Z,7.43
2019-03-21T16:03:04.343Z,6.77
2019-03-21T16:06:10.109Z,6.63
2019-03-21T16:09:16.068Z,11.40
2019-03-21T16:12:25.370Z,8.03
2019-03-21T16:15:31.244Z,9.33
2019-03-21T16:18:38.668Z,6.37
2019-03-21T16:21:44.459Z,7.00
2019-03-21T16:24:50.190Z,6.77
2019-03-21T16:27:56.806Z,9.77
2019-03-21T16:31:02.901Z,9.87
2019-03-21T16:34:08.802Z,9.53
2019-03-21T16:37:15.695Z,8.53
2019-03-21T16:40:21.117Z,7.80
2019-03-21T16:43:27.031Z,8.55
2019-03-21T16:46:33.844Z,8.20
2019-03-21T16:49:42.633Z,7.57
2019-03-21T16:52:48.377Z,7.60
2019-03-21T16:55:54.179Z,6.87
2019-03-21T16:59:00.338Z,10.23
2019-03-21T17:02:06.612Z,8.10
2019-03-21T17:05:13.407Z,6.67
2019-03-21T17:08:20.253Z,8.90
2019-03-21T17:11:29.908Z,8.57
2019-03-21T17:14:35.400Z,7.47
2019-03-21T17:17:41.121Z,10.23
2019-03-21T17:20:54.658Z,12.90
2019-03-21T17:24:00.141Z,9.73
2019-03-21T17:27:05.675Z,16.33
2019-03-21T17:30:12.792Z,8.43
2019-03-21T17:33:18.700Z,12.83
2019-03-21T17:36:24.446Z,10.17
2019-03-21T17:39:30.276Z,11.80
2019-03-21T17:42:42.053Z,10.00
2019-03-21T17:45:47.511Z,14.23
2019-03-21T17:48:53.109Z,13.73
2019-03-21T17:51:58.569Z,10.30
2019-03-21T17:55:04.425Z,12.90
2019-03-21T17:58:10.140Z,12.77
2019-03-21T18:01:16.112Z,11.50
2019-03-21T18:04:23.992Z,10.97
2019-03-21T18:07:29.515Z,11.57
2019-03-21T18:10:35.457Z,9.83
2019-03-21T18:13:41.147Z,13.90
2019-03-21T18:16:46.711Z,10.50
2019-03-21T18:19:52.227Z,12.40
2019-03-21T18:22:57.732Z,15.03
2019-03-21T18:26:03.146Z,14.33
2019-03-21T18:29:15.898Z,11.07
2019-03-21T18:32:21.433Z,12.23
2019-03-21T18:35:27.157Z,10.13
2019-03-21T18:38:32.632Z,9.87
2019-03-21T18:41:38.285Z,17.53
2019-03-21T18:44:43.837Z,25.87
2019-03-21T18:47:52.922Z,18.10
2019-03-21T18:50:58.590Z,14.30
2019-03-21T18:54:05.314Z,16.57
2019-03-21T18:57:10.838Z,16.00
2019-03-21T19:00:16.902Z,10.83
2019-03-21T19:03:22.500Z,15.50
2019-03-21T19:06:28.065Z,12.17
2019-03-21T19:09:33.587Z,12.40
2019-03-21T19:12:39.165Z,14.70
2019-03-21T19:15:44.716Z,12.70
2019-03-21T19:18:50.445Z,18.83
2019-03-21T19:21:56.250Z,13.23
2019-03-21T19:25:17.818Z,15.70
2019-03-21T19:28:16.137Z,14.77
2019-03-21T19:31:22.089Z,13.27
2019-03-21T19:34:27.952Z,12.93
2019-03-21T19:37:33.800Z,16.83
2019-03-21T19:40:39.313Z,12.00
2019-03-21T19:43:44.918Z,11.87
2019-03-21T19:46:50.385Z,13.90
2019-03-21T19:49:55.864Z,12.07
2019-03-21T19:53:01.263Z,12.80
2019-03-21T19:56:08.774Z,14.50
2019-03-21T19:59:13.782Z,13.03
2019-03-21T20:02:19.337Z,18.83
2019-03-21T20:05:24.844Z,21.10
2019-03-21T20:08:30.632Z,19.97
2019-03-21T20:11:36.404Z,17.00
2019-03-21T20:14:44.371Z,16.43
2019-03-21T20:17:51.941Z,17.40
2019-03-21T20:20:58.509Z,19.33
2019-03-21T20:24:03.926Z,18.03
2019-03-21T20:27:10.057Z,14.90
2019-03-21T20:30:18.464Z,17.60
2019-03-21T20:33:24.522Z,14.40
2019-03-21T20:36:29.972Z,22.37
2019-03-21T20:39:35.506Z,15.17
2019-03-21T20:42:41.160Z,14.23
2019-03-21T20:45:46.956Z,18.90
2019-03-21T20:48:49.900Z,13.50
2019-03-21T20:51:55.544Z,12.97
2019-03-21T20:55:01.076Z,13.03
2019-03-21T20:58:08.192Z,13.43
2019-03-21T21:01:13.918Z,11.70
2019-03-21T21:04:19.572Z,13.03
2019-03-21T21:07:25.258Z,12.93
2019-03-21T21:10:30.716Z,12.40
2019-03-21T21:13:36.390Z,16.60
2019-03-21T21:16:42.042Z,12.67
2019-03-21T21:19:47.727Z,13.37
2019-03-21T21:22:53.739Z,12.77
2019-03-21T21:26:05.477Z,14.63
2019-03-21T21:29:07.010Z,16.67
2019-03-21T21:32:13.027Z,13.00
2019-03-21T21:35:18.976Z,17.23
2019-03-21T21:38:24.451Z,13.87
2019-03-21T21:41:30.202Z,13.03
2019-03-21T21:44:36.097Z,12.70
2019-03-21T21:47:42.350Z,14.00
2019-03-21T21:50:48.137Z,14.00
2019-03-21T21:53:56.675Z,12.10
2019-03-21T21:57:02.064Z,17.73
2019-03-21T22:00:09.102Z,18.60
2019-03-21T22:03:15.198Z,17.60
2019-03-21T22:06:21.218Z,16.27
2019-03-21T22:09:26.791Z,13.67
2019-03-21T22:12:32.553Z,15.00
2019-03-21T22:15:37.942Z,18.77
2019-03-21T22:18:44.409Z,14.00
2019-03-21T22:21:50.419Z,17.50
2019-03-21T22:24:56.014Z,12.40
2019-03-21T22:28:01.492Z,17.47
2019-03-21T22:31:06.914Z,11.83
2019-03-21T22:34:12.374Z,13.43
2019-03-21T22:37:20.133Z,12.93
2019-03-21T22:40:25.929Z,19.17
2019-03-21T22:43:31.544Z,14.30
2019-03-21T22:46:36.939Z,13.43
2019-03-21T22:49:42.481Z,14.07
2019-03-21T22:52:51.732Z,15.73
2019-03-21T22:55:57.626Z,16.93
2019-03-21T22:59:03.341Z,18.83
2019-03-21T23:02:08.745Z,20.93
2019-03-21T23:05:14.759Z,17.07
2019-03-21T23:08:20.211Z,15.07
2019-03-21T23:11:25.721Z,16.80
2019-03-21T23:14:31.423Z,16.30
2019-03-21T23:17:40.065Z,17.50
2019-03-21T23:20:45.579Z,14.20
2019-03-21T23:23:50.956Z,14.43
2019-03-21T23:26:56.548Z,13.83
2019-03-21T23:30:02.108Z,17.67
2019-03-21T23:33:07.971Z,21.03
2019-03-21T23:36:13.341Z,16.57
2019-03-21T23:39:18.993Z,16.47
2019-03-21T23:42:24.678Z,12.60
2019-03-21T23:45:30.378Z,17.40
2019-03-21T23:48:35.755Z,14.40
2019-03-21T23:51:42.694Z,13.50
2019-03-21T23:54:48.269Z,15.77
2019-03-21T23:57:53.814Z,14.13
